• Join FlightAware (Why Join?)
  • Login
  • US Flag 
12:50AM EDT


 

Airport Tracker/Info


-or-


 

Live Flight TrackerFlight Track Log ✈ DAL1981 ✈ 08-Jun-2013 ✈ KALB - KATL

Flight Track Log - Related Links

Times and Time Zones

All times are in EDT time to prevent confusion due to time zone crossing. See the DAL1981 flight status page for this flight to view local times or setup timezone preferences in your user account.

Time Position Orientation Groundspeed Altitude Reporting Facility
EDT Latitude Longitude Course Direction KTS MPH feet Rate Location/Type
06:12AM 42.7631 -73.8089 200° South 135 155 1,400  Level Boston Center
06:13AM 42.7983 -73.8208 346° North 196 226 2,700 1,920 Climbing Boston Center
06:13AM 42.8356 -73.8500 330° Northwest 255 293 4,000 2,760 Climbing Boston Center
06:14AM 42.8847 -73.9108 318° Northwest 257 296 7,200 2,940 Climbing Boston Center
06:15AM 42.5128 -74.1323 200° South  Level Estimated
06:15AM 42.8711 -73.9983 258° West 217 250 9,900  Level Boston Center
06:16AM 42.4338 -74.2419 198° South  Level Estimated
06:16AM 42.8264 -74.0792 233° Southwest 245 282 11,600  Level Boston Center
06:17AM 42.3548 -74.3511 200° South  Level Estimated
06:17AM 42.7200 -74.0847 182° South 255 293 12,900  Level Boston Center
06:18AM 42.5806 -74.0669 175° South 303 349 15,700 2,400 Climbing Boston Center
06:19AM 42.4722 -74.0558 176° South 391 450 17,800 2,220 Climbing Boston Center
06:20AM 42.3411 -74.0494 178° South 419 482 20,200 2,040 Climbing Boston Center
06:21AM 42.2183 -74.0381 176° South 439 505 21,900 1,560 Climbing Boston Center
06:22AM 42.1014 -74.0461 183° South 451 519 23,400 1,800 Climbing Boston Center
06:23AM 41.9783 -74.0514 182° South 457 526 25,500 1,980 Climbing Boston Center
06:24AM 41.8533 -74.0594 183° South 457 526 27,400 1,860 Climbing Boston Center
06:26AM 41.5961 -74.0886 185° South 434 499 31,400 1,440 Climbing New York Center
06:27AM 41.5169 -74.1594 214° Southwest 397 457 32,000 240 Climbing New York Center
06:28AM 41.4269 -74.2489 217° Southwest 397 457 32,000  Level New York Center
06:29AM 41.3408 -74.3439 220° Southwest 408 470 32,000  Level New York Center
06:30AM 41.2544 -74.4414 220° Southwest 408 470 32,000  Level New York Center
06:31AM 41.1683 -74.5306 218° Southwest 408 470 32,000  Level New York Center
06:32AM 41.0819 -74.6303 221° Southwest 408 470 32,000  Level New York Center
06:33AM 40.9978 -74.7189 218° Southwest 408 470 32,000  Level New York Center
06:34AM 40.9089 -74.8153 219° Southwest 408 470 32,000  Level New York Center
06:35AM 40.8267 -74.9092 221° Southwest 408 470 32,000  Level New York Center
06:36AM 40.7422 -75.0000 219° Southwest 408 470 32,000  Level New York Center
06:37AM 40.6597 -75.0906 220° Southwest 403 464 32,000  Level New York Center
06:38AM 40.5728 -75.1861 220° Southwest 403 464 32,000  Level New York Center
06:39AM 40.4858 -75.2789 219° Southwest 403 464 32,000  Level New York Center
06:40AM 40.4011 -75.3689 219° Southwest 403 464 32,000  Level New York Center
06:41AM 40.3183 -75.4611 220° Southwest 398 458 32,000  Level New York Center
06:42AM 40.2311 -75.5558 220° Southwest 398 458 32,000  Level New York Center
06:43AM 40.1681 -75.6711 234° Southwest 398 458 32,000  Level New York Center
06:44AM 40.1089 -75.7919 237° Southwest 398 458 32,000  Level New York Center
06:46AM 39.9772 -76.0544 237° Southwest 402 463 32,000 420 Level Washington Center
06:47AM 39.9164 -76.1731 236° Southwest 402 463 33,400 960 Climbing Washington Center
06:48AM 39.8533 -76.2942 236° Southwest 397 457 34,000 240 Climbing Washington Center
06:49AM 39.7942 -76.4097 236° Southwest 397 457 34,000  Level Washington Center
06:50AM 39.7497 -76.5064 239° Southwest 397 457 34,000  Level Washington Center
06:51AM 39.6758 -76.6294 232° Southwest 397 457 34,000  Level Washington Center
06:52AM 39.6144 -76.7444 235° Southwest 397 457 34,000  Level Washington Center
06:53AM 39.5528 -76.8592 235° Southwest 397 457 34,000  Level Washington Center
06:54AM 39.4933 -76.9739 236° Southwest 397 457 34,000  Level Washington Center
06:55AM 39.4131 -77.0636 221° Southwest 391 450 34,000  Level Washington Center
06:56AM 39.3367 -77.1667 226° Southwest 391 450 34,000  Level Washington Center
06:57AM 39.2644 -77.2669 227° Southwest 391 450 34,000  Level Washington Center
06:58AM 39.1919 -77.3697 228° Southwest 396 456 34,000  Level Washington Center
06:59AM 39.1156 -77.4750 227° Southwest 396 456 34,000  Level Washington Center
07:00AM 39.0322 -77.5878 226° Southwest 401 461 34,000  Level Washington Center
07:01AM 38.9642 -77.6819 227° Southwest 401 461 34,000  Level Washington Center
07:02AM 38.8786 -77.7969 226° Southwest 401 461 34,000  Level Washington Center
07:03AM 38.8014 -77.9064 228° Southwest 408 470 34,000  Level Washington Center
07:04AM 38.7244 -78.0131 227° Southwest 408 470 34,000  Level Washington Center
07:05AM 38.6472 -78.1169 226° Southwest 413 475 34,000  Level Washington Center
07:06AM 38.5719 -78.2206 227° Southwest 413 475 34,000  Level Washington Center
07:07AM 38.4947 -78.3239 226° Southwest 413 475 34,000  Level Washington Center
07:08AM 38.4172 -78.4272 226° Southwest 413 475 34,000  Level Washington Center
07:09AM 38.3439 -78.5275 227° Southwest 413 475 34,000  Level Washington Center
07:10AM 38.2833 -78.6100 227° Southwest 413 475 34,000  Level Washington Center
07:11AM 38.2036 -78.7178 227° Southwest 403 464 34,000  Level Washington Center
07:12AM 38.1256 -78.8200 226° Southwest 403 464 34,000  Level Washington Center
07:13AM 38.0522 -78.9169 226° Southwest 403 464 34,000  Level Washington Center
07:14AM 37.9678 -79.0267 226° Southwest 403 464 34,000  Level Washington Center
07:15AM 37.8917 -79.1283 227° Southwest 403 464 34,000  Level Washington Center
07:16AM 37.8200 -79.2275 228° Southwest 398 458 34,000  Level Washington Center
07:17AM 37.7458 -79.3289 227° Southwest 398 458 34,000  Level Washington Center
07:18AM 37.6697 -79.4303 227° Southwest 398 458 34,000 180 Level Washington Center
07:19AM 37.6042 -79.5239 229° Southwest 398 458 34,400 480 Climbing Washington Center
07:20AM 37.5233 -79.6350 227° Southwest 398 458 35,000 600 Climbing Washington Center
07:21AM 37.4556 -79.7256 227° Southwest 398 458 35,600 480 Climbing Washington Center
07:22AM 37.3786 -79.8311 227° Southwest 417 480 36,000 180 Climbing Washington Center
07:23AM 37.3042 -79.9289 226° Southwest 398 458 36,000  Level Washington Center
07:26AM 37.1333 -80.1597 227° Southwest 384 442 36,000  Level Atlanta Center
07:27AM 37.0575 -80.2625 227° Southwest 384 442 36,000  Level Atlanta Center
07:28AM 36.9914 -80.3514 227° Southwest 384 442 36,000  Level Atlanta Center
07:29AM 36.9172 -80.4508 227° Southwest 389 448 36,000  Level Atlanta Center
07:30AM 36.8408 -80.5503 226° Southwest 389 448 36,000  Level Atlanta Center
07:31AM 36.7664 -80.6519 228° Southwest 389 448 36,000  Level Atlanta Center
07:32AM 36.6961 -80.7508 228° Southwest 383 441 36,000  Level Atlanta Center
07:33AM 36.6217 -80.8469 226° Southwest 383 441 36,000  Level Atlanta Center
07:34AM 36.5469 -80.9456 227° Southwest 383 441 36,000  Level Atlanta Center
07:35AM 36.4742 -81.0439 227° Southwest 388 447 36,000  Level Atlanta Center
07:36AM 36.3994 -81.1394 226° Southwest 388 447 36,000  Level Atlanta Center
07:37AM 36.3267 -81.2350 227° Southwest 381 438 36,000  Level Atlanta Center
07:38AM 36.2558 -81.3300 227° Southwest 376 433 36,000  Level Atlanta Center
07:39AM 36.1828 -81.4253 226° Southwest 381 438 36,000  Level Atlanta Center
07:40AM 36.1056 -81.5253 226° Southwest 381 438 36,000  Level Atlanta Center
07:41AM 36.0364 -81.6172 227° Southwest 381 438 36,000  Level Atlanta Center
07:42AM 35.9653 -81.7067 226° Southwest 381 438 36,000  Level Atlanta Center
07:43AM 35.8919 -81.8036 227° Southwest 381 438 36,000  Level Atlanta Center
07:44AM 35.8206 -81.8953 226° Southwest 381 438 36,000  Level Atlanta Center
07:45AM 35.7511 -81.9867 227° Southwest 380 437 36,000  Level Atlanta Center
07:46AM 35.6756 -82.0806 225° Southwest 380 437 36,000 -540 Level Atlanta Center
07:47AM 35.6039 -82.1717 226° Southwest 380 437 35,000 -540 Descending Atlanta Center
07:48AM 35.5281 -82.2653 225° Southwest 380 437 35,000 -480 Level Atlanta Center
07:49AM 35.4522 -82.3561 224° Southwest 385 443 34,100 -720 Descending Atlanta Center
07:50AM 35.3700 -82.4469 222° Southwest 392 451 33,600 -720 Descending Atlanta Center
07:51AM 35.2897 -82.5350 222° Southwest 397 457 32,700 -840 Descending Atlanta Center
07:52AM 35.2175 -82.6125 221° Southwest 397 457 32,000 -780 Descending Atlanta Center
07:53AM 35.1372 -82.7028 223° Southwest 392 451 31,200 -1,020 Descending Atlanta Center
07:54AM 35.0569 -82.7956 223° Southwest 392 451 30,000 -1,380 Descending Atlanta Center
07:55AM 34.9700 -82.8906 222° Southwest 397 457 28,500 -1,440 Descending Atlanta Center
07:56AM 34.8792 -82.9831 220° Southwest 417 480 27,200 -1,020 Descending Atlanta Center
07:57AM 34.7903 -83.0803 222° Southwest 435 501 26,500 -660 Descending Atlanta Center
07:58AM 34.6992 -83.1797 222° Southwest 435 501 25,900 -780 Descending Atlanta Center
07:59AM 34.6100 -83.2767 222° Southwest 435 501 25,000 -960 Descending Atlanta Center
08:00AM 34.5125 -83.3808 221° Southwest 435 501 24,000 -1,500 Descending Atlanta Center
08:01AM 34.4253 -83.4772 222° Southwest 430 495 22,000 -2,580 Descending Atlanta Center
08:02AM 34.3403 -83.5683 222° Southwest 425 489 18,900 -3,060 Descending Atlanta Center
08:03AM 34.2569 -83.6592 222° Southwest 413 475 15,900 -3,000 Descending Atlanta Center
08:04AM 34.1758 -83.7475 222° Southwest 407 468 13,000 -1,920 Descending Atlanta Center
08:05AM 34.1008 -83.8306 223° Southwest 386 444 12,100 -840 Descending Atlanta Center
08:06AM 34.0333 -83.9000 220° Southwest 369 425 11,400 -900 Descending Atlanta TRACON
08:07AM 33.9500 -83.9667 214° Southwest 363 418 10,400 -720 Descending Atlanta TRACON
08:08AM 33.8500 -83.9667 180° South 340 391 10,000 -660 Descending Atlanta TRACON
08:09AM 33.7667 -83.9667 180° South 278 320 9,100 -1,380 Descending Atlanta TRACON
08:10AM 33.6961 -83.9764 187° South 290 334 7,300 -1,020 Descending Atlanta Center
08:11AM 33.6378 -84.0089 205° Southwest 245 282 7,100 -600 Descending Atlanta Center
08:12AM 33.6314 -84.0811 264° West 193 222 6,100 -960 Descending Atlanta Center
08:13AM 33.6333 -84.1500 272° West 185 213 5,200 -960 Descending Atlanta TRACON
08:14AM 33.6333 -84.2167 270° West 186 214 4,200 -960 Descending Atlanta TRACON
08:15AM 33.6333 -84.2833 270° West 184 212 3,300 -900 Descending Atlanta TRACON